Thunder radar more information blitzortung!


avis per Pluja more information rain snow radar


Visita la nostra xarxa de llocs de meteo:

Template documentation
and downloads

And another site



Rain From: 15-11-2018 14:00 Until: 23:59 warning for: Rain Level: Orange info button

Pagina Historial Weather Underground text

Diari Resum Juny 15, 2017 Unitats:  Mètric    Imperial   Tant
« Previous Dia
SegĂźent Dia »
Diari Setmana Mensual Anual Personalitzada
  Maxima: Minima: Media:
Temperatura: -17.8 °C -6.9 °C -0.8 °C
Punt de rosada: -17.8 °C -15.4 °C -13.3 °C
Humitat: Humidity % 15 % 26 %
Wind Speed: 0 km/h 0 km/h 10.6 km/h
RĂ fegues de vent: 0 km/h - -
Vent:- - South
Pression baro: 0 hPa 34256.2 hPa -
Precipitacions: 0 mm    
Historical Graphs
 
 
Dades de taula per Juny 15, 2017
Temps Temperatura Punt de rosada Pression baro Vent Wind Speed RĂ fegues de vent Humitat Rainfall Rate (Hourly)
-17.8 °C -17.8 °C 0 hPa Calm     Humidity % 0 mm
00:04 -3.9 °C -14.4 °C 34293.4 hPa Calm     30 % 0 mm
00:05 -6.7 °C -13.5 °C 34256.2 hPa Calm   5.1 km/h 45 % 0 mm
00:15 -6.6 °C -13.3 °C 34256.2 hPa Calm     46 % 0 mm
00:25 -6.6 °C -13.1 °C 34293.4 hPa Calm     47 % 0 mm
00:35 -6.6 °C -13.1 °C 34293.4 hPa Calm     47 % 0 mm
00:45 -6.5 °C -13 °C 34293.4 hPa WNW 2.6 km/h   47 % 0 mm
00:55 -6.4 °C -12.9 °C 34293.4 hPa NW 2.6 km/h 2.6 km/h 47 % 0 mm
01:05 -6.6 °C -12.9 °C 34293.4 hPa North 2.6 km/h 5.1 km/h 48 % 0 mm
01:15 -6.7 °C -12.8 °C 34293.4 hPa Calm     49 % 0 mm
01:25 -6.8 °C -12.9 °C 34293.4 hPa Calm     49 % 0 mm
01:35 -6.8 °C -12.9 °C 34293.4 hPa Calm     49 % 0 mm
01:45 -6.9 °C -13 °C 34293.4 hPa Calm     49 % 0 mm
01:55 -6.8 °C -12.9 °C 34327.3 hPa WNW 2.6 km/h 2.6 km/h 49 % 0 mm
02:05 -6.7 °C -12.7 °C 34327.3 hPa Calm   5.1 km/h 50 % 0 mm
02:15 -6.7 °C -12.6 °C 34327.3 hPa Calm   2.6 km/h 50 % 0 mm
02:25 -6.5 °C -12.4 °C 34327.3 hPa Calm   5.1 km/h 50 % 0 mm
02:35 -6.4 °C -12.4 °C 34327.3 hPa NE 2.6 km/h 7.7 km/h 50 % 0 mm
02:45 -6.4 °C -12.6 °C 34327.3 hPa NE 5.1 km/h 5.1 km/h 49 % 0 mm
02:55 -6.3 °C -12.5 °C 34327.3 hPa SW 2.6 km/h 5.1 km/h 49 % 0 mm
03:05 -6.2 °C -12.3 °C 34327.3 hPa SW 2.6 km/h 5.1 km/h 49 % 0 mm
03:15 -5.8 °C -12.2 °C 34327.3 hPa Calm   5.1 km/h 48 % 0 mm
03:25 -5.6 °C -12.2 °C 34293.4 hPa SW 5.1 km/h 5.1 km/h 47 % 0 mm
03:35 -5.3 °C -11.9 °C 34327.3 hPa SW 2.6 km/h 2.6 km/h 47 % 0 mm
03:45 -5 °C -11.8 °C 34327.3 hPa SW 2.6 km/h 5.1 km/h 46 % 0 mm
03:55 -4.7 °C -11.6 °C 34327.3 hPa WSW 2.6 km/h 5.1 km/h 46 % 0 mm
04:05 -4.4 °C -11.5 °C 34361.1 hPa SW 2.6 km/h 5.1 km/h 45 % 0 mm
04:15 -4 °C -11.3 °C 34361.1 hPa SW 2.6 km/h 5.1 km/h 44 % 0 mm
04:25 -3.6 °C -11.1 °C 34361.1 hPa WSW 2.6 km/h 5.1 km/h 43 % 0 mm
04:35 -2.8 °C -10.8 °C 34361.1 hPa NNW 2.6 km/h 5.1 km/h 41 % 0 mm
04:45 -2.7 °C -10.7 °C 34361.1 hPa WSW 2.6 km/h 2.6 km/h 41 % 0 mm
04:55 -2.4 °C -10.7 °C 34361.1 hPa South 2.6 km/h 5.1 km/h 40 % 0 mm
05:05 -2.1 °C -10.6 °C 34361.1 hPa South 2.6 km/h 5.1 km/h 39 % 0 mm
05:15 -1.8 °C -10.3 °C 34361.1 hPa SW 2.6 km/h 5.1 km/h 39 % 0 mm
05:25 -1.4 °C -10.4 °C 34361.1 hPa Calm   5.1 km/h 37 % 0 mm
05:35 -1.3 °C -10.6 °C 34327.3 hPa SSW 2.6 km/h 10.3 km/h 36 % 0 mm
05:45 -1.3 °C -11 °C 34327.3 hPa SSW 5.1 km/h 7.7 km/h 34 % 0 mm
10:46 -1 °C -10.8 °C 34327.3 hPa SSE 9 km/h 9 km/h 34 % 0 mm
10:51 -0.8 °C -10.9 °C 34327.3 hPa East 9 km/h 9 km/h 33 % 0 mm
10:56 -0.9 °C -11.2 °C 34327.3 hPa SE 11.9 km/h 11.9 km/h 32 % 0 mm
11:01 -0.9 °C -11 °C 34327.3 hPa SE 9.8 km/h 9.8 km/h 33 % 0 mm
11:06 -1 °C -11.3 °C 34327.3 hPa ESE 11.9 km/h 11.9 km/h 32 % 0 mm
11:11 -0.9 °C -11.2 °C 34327.3 hPa East 9 km/h 9 km/h 32 % 0 mm
11:16 -0.7 °C -11.1 °C 34327.3 hPa North 3.7 km/h 3.7 km/h 32 % 0 mm
11:21 -0.7 °C -11 °C 34327.3 hPa NNE 6 km/h 6 km/h 32 % 0 mm
11:26 -0.4 °C -11.1 °C 34327.3 hPa ENE 6 km/h 6 km/h 31 % 0 mm
11:31 -0.4 °C -11.3 °C 34361.1 hPa SSE 9 km/h 9 km/h 30 % 0 mm
11:33 -0.3 °C -11.2 °C 34361.1 hPa ESE 6.8 km/h 6.8 km/h 30 % 0 mm
11:38 -0.1 °C -11.3 °C 34361.1 hPa ENE 9 km/h 9 km/h 29 % 0 mm
11:43 -0.2 °C -11.4 °C 34361.1 hPa East 9 km/h 9 km/h 29 % 0 mm
11:48 -0.3 °C -11.6 °C 34361.1 hPa ESE 15 km/h 15 km/h 29 % 0 mm
11:53 -0.1 °C -11.3 °C 34361.1 hPa ESE 7.6 km/h 7.6 km/h 29 % 0 mm
11:58 0.1 °C -11.4 °C 34361.1 hPa NNE 9 km/h 9 km/h 28 % 0 mm
12:03 0.2 °C -11.7 °C 34361.1 hPa NNE 11.9 km/h 11.9 km/h 27 % 0 mm
12:08 0.4 °C -11.5 °C 34361.1 hPa SE 6.3 km/h 6.3 km/h 27 % 0 mm
12:13 0.4 °C -11.8 °C 34361.1 hPa SE 12.2 km/h 12.2 km/h 26 % 0 mm
12:18 0.5 °C -11.8 °C 34327.3 hPa East 6 km/h 6 km/h 26 % 0 mm
12:23 0.8 °C -12.2 °C 34327.3 hPa South 11.9 km/h 11.9 km/h 24 % 0 mm
12:28 0.4 °C -12.1 °C 34327.3 hPa NNE 15 km/h 15 km/h 25 % 0 mm
12:33 0.7 °C -12.3 °C 34327.3 hPa ENE 11.9 km/h 11.9 km/h 24 % 0 mm
12:38 0.7 °C -12.3 °C 34327.3 hPa ENE 6 km/h 6 km/h 24 % 0 mm
12:43 0.9 °C -12.1 °C 34327.3 hPa West 15 km/h 15 km/h 24 % 0 mm
12:48 0.8 °C -12.8 °C 34327.3 hPa East 20.9 km/h 20.9 km/h 22 % 0 mm
12:53 1 °C -12.7 °C 34327.3 hPa East 15 km/h 15 km/h 22 % 0 mm
12:58 1.1 °C -12.7 °C 34327.3 hPa ENE 12.2 km/h 12.2 km/h 22 % 0 mm
13:03 1 °C -12.7 °C 34327.3 hPa ESE 17.9 km/h 17.9 km/h 22 % 0 mm
13:08 1 °C -12.7 °C 34327.3 hPa ENE 15 km/h 15 km/h 22 % 0 mm
13:13 1 °C -13.1 °C 34327.3 hPa ESE 15 km/h 15 km/h 21 % 0 mm
13:18 0.9 °C -13.2 °C 34327.3 hPa ENE 15 km/h 15 km/h 21 % 0 mm
13:23 1.2 °C -12.9 °C 34327.3 hPa ENE 17.4 km/h 17.4 km/h 21 % 0 mm
13:28 1.2 °C -12.9 °C 34327.3 hPa ESE 15 km/h 15 km/h 21 % 0 mm
13:33 1.1 °C -13.4 °C 34327.3 hPa ESE 20.9 km/h 20.9 km/h 20 % 0 mm
13:38 1 °C -13.5 °C 34327.3 hPa ESE 20.9 km/h 20.9 km/h 20 % 0 mm
13:43 1.1 °C -13.1 °C 34327.3 hPa NNE 23.8 km/h 23.8 km/h 21 % 0 mm
13:48 1.2 °C -12.9 °C 34327.3 hPa ENE 20.9 km/h 20.9 km/h 21 % 0 mm
13:53 1.1 °C -13.8 °C 34327.3 hPa ESE 26.9 km/h 26.9 km/h 19 % 0 mm
13:58 1.1 °C -13.4 °C 34327.3 hPa NNE 17.9 km/h 17.9 km/h 20 % 0 mm
14:03 1.1 °C -13.8 °C 34327.3 hPa East 22.5 km/h 22.5 km/h 19 % 0 mm
14:08 1.1 °C -13.8 °C 34327.3 hPa ESE 25.1 km/h 25.1 km/h 19 % 0 mm
14:13 1.2 °C -13.7 °C 34327.3 hPa ESE 26.9 km/h 26.9 km/h 19 % 0 mm
14:18 1.3 °C -14.1 °C 34327.3 hPa ESE 29.8 km/h 29.8 km/h 18 % 0 mm
14:23 1.4 °C -13.6 °C 34327.3 hPa ESE 19.6 km/h 19.6 km/h 19 % 0 mm
14:25 1.4 °C -13.6 °C 34327.3 hPa East 20.9 km/h 20.9 km/h 19 % 0 mm
14:30 1.6 °C -13.9 °C 34327.3 hPa ESE 20.9 km/h 20.9 km/h 18 % 0 mm
14:35 1.4 °C -14.1 °C 34327.3 hPa ESE 23.8 km/h 23.8 km/h 18 % 0 mm
14:40 1.2 °C -14.6 °C 34327.3 hPa ENE 22 km/h 22 km/h 17 % 0 mm
14:45 1.3 °C -14.1 °C 34327.3 hPa ENE 20.9 km/h 20.9 km/h 18 % 0 mm
14:50 1.4 °C -14.5 °C 34327.3 hPa SE 20.9 km/h 20.9 km/h 17 % 0 mm
14:55 1.4 °C -14.9 °C 34327.3 hPa ESE 31.4 km/h 31.4 km/h 16 % 0 mm
15:00 1.4 °C -14.5 °C 34327.3 hPa East 15 km/h 15 km/h 17 % 0 mm
15:05 1.3 °C -15.1 °C 34327.3 hPa ESE 17.9 km/h 17.9 km/h 16 % 0 mm
15:10 1.5 °C -14.4 °C 34327.3 hPa NNW 29.8 km/h 29.8 km/h 17 % 0 mm
15:15 1.6 °C -14.3 °C 34327.3 hPa SE 26.9 km/h 26.9 km/h 17 % 0 mm
15:20 1.8 °C -15.2 °C 34327.3 hPa SE 15 km/h 15 km/h 15 % 0 mm
15:25 1.5 °C -14.9 °C 34327.3 hPa ESE 26.9 km/h 26.9 km/h 16 % 0 mm
15:30 1.5 °C -14.9 °C 34327.3 hPa East 27.7 km/h 27.7 km/h 16 % 0 mm
15:35 1.4 °C -14.9 °C 34327.3 hPa South 26.9 km/h 26.9 km/h 16 % 0 mm
15:40 1.5 °C -15.4 °C 34327.3 hPa ESE 26.9 km/h 26.9 km/h 15 % 0 mm
15:45 2.3 °C -13.8 °C 34327.3 hPa WSW 10.3 km/h 10.3 km/h 17 % 0 mm
15:50 2.4 °C -13.7 °C 34327.3 hPa WSW 9 km/h 9 km/h 17 % 0 mm
15:55 2.8 °C -12.9 °C 34327.3 hPa SSW 11.9 km/h 11.9 km/h 18 % 0 mm
16:00 2.9 °C -13.2 °C 34327.3 hPa West 7.6 km/h 7.6 km/h 17 % 0 mm
16:05 2.7 °C -13.4 °C 34327.3 hPa WNW 15 km/h 15 km/h 17 % 0 mm
16:10 2.9 °C -13.3 °C 34327.3 hPa SW 9 km/h 9 km/h 17 % 0 mm
16:15 2.7 °C -13.4 °C 34327.3 hPa SW 20.9 km/h 20.9 km/h 17 % 0 mm
16:20 2.6 °C -13.5 °C 34327.3 hPa South 15 km/h 15 km/h 17 % 0 mm
16:25 2.8 °C -13.4 °C 34327.3 hPa SSE 15 km/h 15 km/h 17 % 0 mm
16:30 2.6 °C -14 °C 34327.3 hPa SE 15 km/h 15 km/h 16 % 0 mm
16:35 2.8 °C -13.8 °C 34327.3 hPa SSE 9 km/h 9 km/h 16 % 0 mm
16:40 3.1 °C -13.7 °C 34327.3 hPa South 6 km/h 6 km/h 16 % 0 mm
16:45 2.9 °C -13.8 °C 34293.4 hPa SSW 11.1 km/h 11.1 km/h 16 % 0 mm
16:50 2.9 °C -13.7 °C 34293.4 hPa SW 15 km/h 15 km/h 16 % 0 mm
16:55 2.7 °C -13.9 °C 34293.4 hPa WSW 19.6 km/h 19.6 km/h 16 % 0 mm
17:00 2.8 °C -13.8 °C 34327.3 hPa SW 15 km/h 15 km/h 16 % 0 mm
17:05 2.7 °C -13.9 °C 34327.3 hPa SSW 9.3 km/h 9.3 km/h 16 % 0 mm
17:10 2.8 °C -13.8 °C 34327.3 hPa South 11.9 km/h 11.9 km/h 16 % 0 mm
17:15 3.1 °C -13.7 °C 34361.1 hPa South 11.9 km/h 11.9 km/h 16 % 0 mm
17:20 2.4 °C -14.7 °C 34361.1 hPa SW 15 km/h 15 km/h 15 % 0 mm
17:25 2.4 °C -14.7 °C 34361.1 hPa SSW 9 km/h 9 km/h 15 % 0 mm
17:30 2.3 °C -14.8 °C 34327.3 hPa SW 14.5 km/h 14.5 km/h 15 % 0 mm
17:35 2.1 °C -14.9 °C 34327.3 hPa South 6 km/h 6 km/h 15 % 0 mm
17:40 2.2 °C -14.8 °C 34327.3 hPa SW 15 km/h 15 km/h 15 % 0 mm
17:45 2.3 °C -14.8 °C 34327.3 hPa SSE 15 km/h 15 km/h 15 % 0 mm
17:50 2.1 °C -14.9 °C 34327.3 hPa NNE 11.9 km/h 11.9 km/h 15 % 0 mm
17:55 2 °C -15 °C 34327.3 hPa SSE 23.8 km/h 23.8 km/h 15 % 0 mm
18:00 2.1 °C -14.4 °C 34293.4 hPa West 15 km/h 15 km/h 16 % 0 mm
18:05 2.1 °C -14.4 °C 34293.4 hPa South 6.3 km/h 6.3 km/h 16 % 0 mm
18:07 2.2 °C -14.3 °C 34293.4 hPa South 7.6 km/h 7.6 km/h 16 % 0 mm
18:12 1.8 °C -14.7 °C 34293.4 hPa SW 15 km/h 15 km/h 16 % 0 mm
18:17 1.6 °C -14.3 °C 34327.3 hPa SSW 9 km/h 9 km/h 17 % 0 mm
18:22 1.4 °C -14.4 °C 34327.3 hPa West 10.3 km/h 10.3 km/h 17 % 0 mm
18:27 1.5 °C -14.4 °C 34327.3 hPa WSW 17.9 km/h 17.9 km/h 17 % 0 mm
18:32 1.4 °C -14.5 °C 34327.3 hPa WSW 15.3 km/h 15.3 km/h 17 % 0 mm
18:37 1.2 °C -14.6 °C 34327.3 hPa SW 15 km/h 15 km/h 17 % 0 mm
18:42 1.2 °C -14.6 °C 34327.3 hPa WSW 15 km/h 15 km/h 17 % 0 mm
18:47 1.1 °C -14.8 °C 34327.3 hPa WSW 15 km/h 15 km/h 17 % 0 mm
18:52 0.8 °C -14.9 °C 34327.3 hPa West 20.9 km/h 20.9 km/h 17 % 0 mm
18:57 0.7 °C -15.1 °C 34327.3 hPa WSW 17.9 km/h 17.9 km/h 17 % 0 mm
19:02 0.6 °C -15.1 °C 34327.3 hPa West 17.9 km/h 17.9 km/h 17 % 0 mm
19:07 0.5 °C -15.2 °C 34327.3 hPa SW 20.9 km/h 20.9 km/h 17 % 0 mm
19:12 0.3 °C -14.9 °C 34327.3 hPa SW 20.9 km/h 20.9 km/h 18 % 0 mm
19:17 0.3 °C -14.9 °C 34327.3 hPa WSW 17.9 km/h 17.9 km/h 18 % 0 mm
19:22 0.2 °C -14.9 °C 34327.3 hPa West 15 km/h 15 km/h 18 % 0 mm
19:27 0.1 °C -15.1 °C 34327.3 hPa West 11.9 km/h 11.9 km/h 18 % 0 mm
19:32 0.1 °C -15.1 °C 34327.3 hPa SW 17.9 km/h 17.9 km/h 18 % 0 mm
19:37 0.1 °C -15.1 °C 34327.3 hPa SW 11.9 km/h 11.9 km/h 18 % 0 mm
19:42 0 °C -15.2 °C 34327.3 hPa WSW 15 km/h 15 km/h 18 % 0 mm
19:47 0 °C -14.7 °C 34327.3 hPa SW 15 km/h 15 km/h 19 % 0 mm
19:52 -0.1 °C -14.4 °C 34327.3 hPa SSW 15 km/h 15 km/h 20 % 0 mm
19:57 -0.2 °C -14.1 °C 34327.3 hPa SW 15 km/h 15 km/h 21 % 0 mm
20:02 -0.3 °C -14.2 °C 34327.3 hPa WSW 11.9 km/h 11.9 km/h 21 % 0 mm
20:07 -0.4 °C -13.8 °C 34327.3 hPa SW 9 km/h 9 km/h 22 % 0 mm
20:12 -0.5 °C -13.9 °C 34327.3 hPa SW 12.7 km/h 12.7 km/h 22 % 0 mm
20:17 -0.6 °C -14 °C 34327.3 hPa SW 12.2 km/h 12.2 km/h 22 % 0 mm
20:22 -0.6 °C -13.7 °C 34327.3 hPa SSW 11.9 km/h 11.9 km/h 23 % 0 mm
20:27 -0.8 °C -13.8 °C 34327.3 hPa WSW 17.9 km/h 17.9 km/h 23 % 0 mm
20:32 -0.8 °C -13.9 °C 34327.3 hPa WSW 9 km/h 9 km/h 23 % 0 mm
20:37 -0.9 °C -14 °C 34327.3 hPa SW 9.3 km/h 9.3 km/h 23 % 0 mm
20:42 -1 °C -14 °C 34327.3 hPa SSW 15.3 km/h 15.3 km/h 23 % 0 mm
20:47 -1.1 °C -14.1 °C 34361.1 hPa West 15 km/h 15 km/h 23 % 0 mm
20:52 -1.1 °C -13.8 °C 34361.1 hPa SW 12.2 km/h 12.2 km/h 24 % 0 mm
20:57 -1.2 °C -13.8 °C 34361.1 hPa SW 9 km/h 9 km/h 24 % 0 mm
21:02 -1.3 °C -13.6 °C 34361.1 hPa SW 9.3 km/h 9.3 km/h 25 % 0 mm
21:07 -1.4 °C -13.7 °C 34361.1 hPa SW 11.9 km/h 11.9 km/h 25 % 0 mm
21:12 -1.5 °C -13.8 °C 34361.1 hPa WSW 11.9 km/h 11.9 km/h 25 % 0 mm
21:17 -1.6 °C -13.8 °C 34361.1 hPa SW 6 km/h 6 km/h 25 % 0 mm
21:22 -1.6 °C -13.8 °C 34361.1 hPa SW 9 km/h 9 km/h 25 % 0 mm
21:27 -1.7 °C -13.6 °C 34361.1 hPa WSW 3.7 km/h 3.7 km/h 26 % 0 mm
21:32 -1.7 °C -13.7 °C 34361.1 hPa SW 6 km/h 6 km/h 26 % 0 mm
21:37 -1.8 °C -13.4 °C 34361.1 hPa SW 3.1 km/h 3.1 km/h 27 % 0 mm
21:42 -1.8 °C -13.4 °C 34361.1 hPa Calm     27 % 0 mm
21:47 -1.9 °C -13.4 °C 34395 hPa Calm     27 % 0 mm
21:52 -1.9 °C -13.5 °C 34395 hPa WSW 3.1 km/h 3.1 km/h 27 % 0 mm
21:57 -2 °C -13.3 °C 34395 hPa West 3.1 km/h   28 % 0 mm
22:02 -2 °C -13.3 °C 34395 hPa Calm     28 % 0 mm
22:07 -2.1 °C -13.3 °C 34395 hPa NE 6 km/h 6 km/h 28 % 0 mm
22:12 -2.1 °C -13.4 °C 34395 hPa NE 6 km/h 6 km/h 28 % 0 mm
22:17 -2.2 °C -13.4 °C 34395 hPa NE 3.7 km/h 3.7 km/h 28 % 0 mm
22:22 -2.2 °C -13.4 °C 34395 hPa NE 3.1 km/h 3.1 km/h 28 % 0 mm
22:27 -2.2 °C -13.4 °C 34395 hPa Calm     28 % 0 mm
22:32 -2.6 °C -13.7 °C 34395 hPa SW 9 km/h 9 km/h 28 % 0 mm
22:37 -2.9 °C -13.7 °C 34395 hPa SW 6 km/h 6 km/h 29 % 0 mm
22:42 -2.9 °C -13.7 °C 34395 hPa SW 6 km/h 6 km/h 29 % 0 mm
22:47 -2.9 °C -13.4 °C 34395 hPa SW 6 km/h 6 km/h 30 % 0 mm
22:52 -2.9 °C -13.4 °C 34395 hPa SW 3.1 km/h   30 % 0 mm
22:57 -2.9 °C -13.4 °C 34395 hPa Calm     30 % 0 mm
23:02 -2.9 °C -13.2 °C 34395 hPa Calm     31 % 0 mm
23:07 -2.9 °C -13.2 °C 34395 hPa Calm     31 % 0 mm
23:12 -2.8 °C -13.2 °C 34395 hPa West 3.7 km/h 3.7 km/h 31 % 0 mm
23:17 -2.9 °C -13.2 °C 34395 hPa Calm     31 % 0 mm
23:22 -2.9 °C -13.2 °C 34395 hPa Calm     31 % 0 mm
23:28 -2.9 °C -13 °C 34395 hPa Calm     32 % 0 mm
23:33 -3 °C -13 °C 34395 hPa West 3.1 km/h   32 % 0 mm
23:38 -3 °C -13 °C 34395 hPa SW 6.8 km/h 6.8 km/h 32 % 0 mm
23:43 -3.2 °C -13.2 °C 34395 hPa SW 6 km/h 6 km/h 32 % 0 mm
23:48 -3.2 °C -13.2 °C 34395 hPa SW 9 km/h 9 km/h 32 % 0 mm
23:53 -3.3 °C -13.1 °C 34395 hPa SW 6 km/h 6 km/h 33 % 0 mm
23:58 -3.3 °C -13.1 °C 34395 hPa WSW 6 km/h 6 km/h 33 % 0 mm
Meteo Sesrovires
Elogis d' Weather Underground - 1.5 mb

Guio original per  Jim McMurry - jmcmurry@mwt.net Adaptat per a la plantilla per  Wim van der Kuil - Leuven-Template.eu

Trobareu la nostra informacio del temps tambe a:

Weather Underground

AWEKAS